createdAt,value
2022-11-15T00:01:25.744Z,77.00
2022-11-15T00:06:29.371Z,77.00
2022-11-15T00:11:33.115Z,77.00
2022-11-15T00:16:37.910Z,77.00
2022-11-15T00:21:41.303Z,76.90
2022-11-15T00:26:44.889Z,76.60
2022-11-15T00:31:49.623Z,76.60
2022-11-15T00:36:53.042Z,76.30
2022-11-15T00:41:56.704Z,76.40
2022-11-15T00:47:01.464Z,76.60
2022-11-15T00:52:05.133Z,77.50
2022-11-15T00:57:08.503Z,76.50
2022-11-15T01:02:13.207Z,76.30
2022-11-15T01:07:16.794Z,76.40
2022-11-15T01:12:20.245Z,76.20
2022-11-15T01:17:25.126Z,76.20
2022-11-15T01:22:28.548Z,76.30
2022-11-15T01:27:31.992Z,76.20
2022-11-15T01:32:36.705Z,76.00
2022-11-15T01:37:40.100Z,76.10
2022-11-15T01:42:44.070Z,76.00
2022-11-15T01:47:53.734Z,76.10
2022-11-15T01:52:57.461Z,75.90
2022-11-15T01:58:05.907Z,75.90
2022-11-15T02:03:10.673Z,76.10
2022-11-15T02:08:21.028Z,76.30
2022-11-15T02:13:25.111Z,76.40
2022-11-15T02:18:38.875Z,76.30
2022-11-15T02:24:24.515Z,76.10
2022-11-15T02:29:41.776Z,75.80
2022-11-15T02:34:53.737Z,76.20
2022-11-15T02:40:05.366Z,76.50
2022-11-15T02:45:11.899Z,76.50
2022-11-15T02:50:20.625Z,76.50
2022-11-15T02:55:29.765Z,76.30
2022-11-15T03:00:37.626Z,76.00
2022-11-15T03:05:48.947Z,76.20
2022-11-15T03:11:03.738Z,76.40
2022-11-15T03:16:11.174Z,76.40
2022-11-15T03:21:16.728Z,76.40
2022-11-15T03:26:23.330Z,76.20
2022-11-15T03:31:51.352Z,76.20
2022-11-15T03:36:56.956Z,76.10
2022-11-15T03:42:10.389Z,75.90
2022-11-15T03:47:18.532Z,75.90
2022-11-15T03:52:24.638Z,75.70
2022-11-15T03:57:28.247Z,75.90
2022-11-15T04:02:31.656Z,75.80
2022-11-15T04:07:36.459Z,75.80
2022-11-15T04:12:43.648Z,75.90
2022-11-15T04:17:48.824Z,75.80
2022-11-15T04:23:13.807Z,75.90
2022-11-15T04:28:17.410Z,75.90
2022-11-15T04:33:21.026Z,75.90
2022-11-15T04:38:25.733Z,75.80
2022-11-15T04:43:29.418Z,75.70
2022-11-15T04:48:33.026Z,75.60
2022-11-15T04:53:38.056Z,75.70
2022-11-15T04:58:41.450Z,75.80
2022-11-15T05:04:03.668Z,76.40
2022-11-15T05:09:08.518Z,76.50
2022-11-15T05:14:12.114Z,76.60
2022-11-15T05:19:15.750Z,76.50
2022-11-15T05:24:20.497Z,76.50
2022-11-15T05:29:24.343Z,76.80
2022-11-15T05:34:28.404Z,76.80
2022-11-15T05:39:33.537Z,76.90
2022-11-15T05:44:39.222Z,77.00
2022-11-15T05:49:44.250Z,76.50
2022-11-15T05:54:49.428Z,76.90
2022-11-15T05:59:53.757Z,76.90
2022-11-15T06:04:57.102Z,76.70
2022-11-15T06:10:01.806Z,76.70
2022-11-15T06:15:05.820Z,76.70
2022-11-15T06:20:09.969Z,76.50
2022-11-15T06:25:14.859Z,76.60
2022-11-15T06:30:18.381Z,76.70
2022-11-15T06:35:21.744Z,76.50
2022-11-15T06:40:26.723Z,76.50
2022-11-15T06:45:30.114Z,76.60
2022-11-15T06:50:33.630Z,76.60
2022-11-15T06:55:38.632Z,76.60
2022-11-15T07:00:42.319Z,76.60
2022-11-15T07:05:53.407Z,76.80
2022-11-15T07:11:00.846Z,77.90
2022-11-15T07:16:05.171Z,77.10
2022-11-15T07:21:10.571Z,77.30
2022-11-15T07:26:15.280Z,77.30
2022-11-15T07:31:18.790Z,77.40
2022-11-15T07:36:22.281Z,77.50
2022-11-15T07:41:27.284Z,77.70
2022-11-15T07:46:30.785Z,77.70
2022-11-15T07:51:34.251Z,77.80
2022-11-15T07:56:40.125Z,77.80
2022-11-15T08:01:43.796Z,77.80
2022-11-15T08:06:48.127Z,77.80
2022-11-15T08:11:52.888Z,77.70
2022-11-15T08:16:57.457Z,78.00
2022-11-15T08:22:00.810Z,77.90
2022-11-15T08:27:05.665Z,77.90
2022-11-15T08:32:09.396Z,78.30
2022-11-15T08:37:12.774Z,78.40
2022-11-15T08:42:19.973Z,78.30
2022-11-15T08:47:23.734Z,78.20
2022-11-15T08:52:27.106Z,78.50
2022-11-15T08:57:32.453Z,78.60
2022-11-15T09:02:35.951Z,78.60
2022-11-15T09:07:39.606Z,78.60
2022-11-15T09:12:44.844Z,78.80
2022-11-15T09:17:48.439Z,78.80
2022-11-15T09:22:51.921Z,78.70
2022-11-15T09:27:56.654Z,78.70
2022-11-15T09:33:00.108Z,79.20
2022-11-15T09:38:03.794Z,79.70
2022-11-15T09:43:26.058Z,79.50
2022-11-15T09:48:51.955Z,79.70
2022-11-15T09:59:48.823Z,80.00
2022-11-15T10:10:28.294Z,79.90
2022-11-15T10:15:34.112Z,80.20
2022-11-15T10:20:54.328Z,80.30
2022-11-15T10:26:06.389Z,80.40
2022-11-15T10:31:25.100Z,81.40
2022-11-15T10:36:29.577Z,80.40
2022-11-15T10:41:43.418Z,80.50
2022-11-15T10:50:04.263Z,79.50
2022-11-15T10:55:26.476Z,80.40
2022-11-15T11:00:34.852Z,80.20
2022-11-15T11:05:43.110Z,80.00
2022-11-15T11:11:00.174Z,79.60
2022-11-15T11:16:39.371Z,79.40
2022-11-15T11:21:53.431Z,79.00
2022-11-15T11:27:15.258Z,78.60
2022-11-15T11:32:48.496Z,78.30
2022-11-15T11:38:03.398Z,78.20
2022-11-15T11:43:17.167Z,77.70
2022-11-15T11:48:33.151Z,77.20
2022-11-15T11:53:44.767Z,76.70
2022-11-15T11:58:50.577Z,75.60
2022-11-15T12:03:59.118Z,75.30
2022-11-15T12:09:15.095Z,75.10
2022-11-15T12:14:31.557Z,74.50
2022-11-15T12:19:35.955Z,74.30
2022-11-15T12:24:45.357Z,74.00
2022-11-15T12:29:53.402Z,73.90
2022-11-15T12:34:57.733Z,73.70
2022-11-15T12:40:24.860Z,73.40
2022-11-15T12:45:33.032Z,73.20
2022-11-15T12:50:55.328Z,73.00
2022-11-15T12:56:26.908Z,72.70
2022-11-15T13:02:01.333Z,72.30
2022-11-15T13:07:06.848Z,71.80
2022-11-15T13:12:14.529Z,71.30
2022-11-15T13:17:37.076Z,70.50
2022-11-15T13:22:55.620Z,71.10
2022-11-15T13:28:05.101Z,69.70
2022-11-15T13:33:18.107Z,70.10
2022-11-15T13:38:29.256Z,70.50
2022-11-15T13:43:37.610Z,68.10
2022-11-15T13:48:43.579Z,68.20
2022-11-15T13:53:51.309Z,68.90
2022-11-15T13:58:55.895Z,68.50
2022-11-15T14:04:03.000Z,68.40
2022-11-15T14:09:42.228Z,68.10
2022-11-15T14:14:47.928Z,68.10
2022-11-15T14:19:53.337Z,67.70
2022-11-15T14:25:16.078Z,67.50
2022-11-15T14:30:20.062Z,67.40
2022-11-15T14:35:25.563Z,67.50
2022-11-15T14:40:29.319Z,67.60
2022-11-15T14:45:32.976Z,67.70
2022-11-15T14:50:38.065Z,67.80
2022-11-15T14:55:41.570Z,67.80
2022-11-15T15:00:44.945Z,67.70
2022-11-15T15:05:49.693Z,67.70
2022-11-15T15:10:53.049Z,67.80
2022-11-15T15:15:56.671Z,67.90
2022-11-15T15:21:07.854Z,67.90
2022-11-15T15:26:11.771Z,67.80
2022-11-15T15:31:15.144Z,67.90
2022-11-15T15:36:20.904Z,68.00
2022-11-15T15:41:25.482Z,69.00
2022-11-15T15:46:28.973Z,68.10
2022-11-15T15:51:33.686Z,68.00
2022-11-15T15:56:37.119Z,68.10
2022-11-15T16:01:40.698Z,68.30
2022-11-15T16:06:46.462Z,68.40
2022-11-15T16:11:49.896Z,68.50
2022-11-15T16:16:53.236Z,68.70
2022-11-15T16:21:58.014Z,69.10
2022-11-15T16:27:01.493Z,69.00
2022-11-15T16:32:05.160Z,69.20
2022-11-15T16:37:22.145Z,69.40
2022-11-15T16:42:25.551Z,69.50
2022-11-15T16:47:28.924Z,69.70
2022-11-15T16:52:34.009Z,69.80
2022-11-15T16:57:37.534Z,69.90
2022-11-15T17:02:41.163Z,69.80
2022-11-15T17:07:50.526Z,69.90
2022-11-15T17:12:57.386Z,69.80
2022-11-15T17:18:01.311Z,69.90
2022-11-15T17:23:12.183Z,69.80
2022-11-15T17:28:15.720Z,69.90
2022-11-15T17:33:19.467Z,70.10
2022-11-15T17:38:24.287Z,70.10
2022-11-15T17:43:28.036Z,70.10
2022-11-15T17:48:32.071Z,70.20
2022-11-15T17:53:38.851Z,70.60
2022-11-15T17:58:43.793Z,70.60
2022-11-15T18:03:47.999Z,70.70
2022-11-15T18:08:55.947Z,70.70
2022-11-15T18:14:01.803Z,70.90
2022-11-15T18:19:08.985Z,71.20
2022-11-15T18:24:13.804Z,71.60
2022-11-15T18:29:17.568Z,71.80
2022-11-15T18:34:21.295Z,71.50
2022-11-15T18:39:26.086Z,71.60
2022-11-15T18:44:30.160Z,71.50
2022-11-15T18:49:33.580Z,70.60
2022-11-15T18:54:38.580Z,70.70
2022-11-15T18:59:42.024Z,70.90
2022-11-15T19:04:45.473Z,71.10
2022-11-15T19:09:50.215Z,70.90
2022-11-15T19:14:54.503Z,72.30
2022-11-15T19:19:57.957Z,73.80
2022-11-15T19:25:05.184Z,74.60
2022-11-15T19:30:10.446Z,74.50
2022-11-15T19:35:13.894Z,74.20
2022-11-15T19:40:19.769Z,74.10
2022-11-15T19:45:23.347Z,73.70
2022-11-15T19:50:26.886Z,73.70
2022-11-15T19:55:32.694Z,73.70
2022-11-15T20:00:37.711Z,73.60
2022-11-15T20:05:41.462Z,73.60
2022-11-15T20:10:48.054Z,73.60
2022-11-15T20:15:51.937Z,73.70
2022-11-15T20:20:59.136Z,73.60
2022-11-15T20:26:03.956Z,73.90
2022-11-15T20:31:08.797Z,74.10
2022-11-15T20:36:14.437Z,75.20
2022-11-15T20:41:19.651Z,74.40
2022-11-15T20:46:23.194Z,74.40
2022-11-15T20:51:26.601Z,74.40
2022-11-15T20:56:31.438Z,74.20
2022-11-15T21:01:34.960Z,74.20
2022-11-15T21:06:42.422Z,74.20
2022-11-15T21:12:07.079Z,74.30
2022-11-15T21:17:11.037Z,74.30
2022-11-15T21:22:15.569Z,74.50
2022-11-15T21:27:21.328Z,74.30
2022-11-15T21:32:24.848Z,74.20
2022-11-15T21:37:28.565Z,74.30
2022-11-15T21:42:33.348Z,75.40
2022-11-15T21:47:36.756Z,75.00
2022-11-15T21:52:40.789Z,75.00
2022-11-15T21:57:45.673Z,75.10
2022-11-15T22:02:49.045Z,75.20
2022-11-15T22:07:52.798Z,75.10
2022-11-15T22:12:58.129Z,75.30
2022-11-15T22:18:02.054Z,75.30
2022-11-15T22:23:06.533Z,75.50
2022-11-15T22:28:11.836Z,75.80
2022-11-15T22:33:15.908Z,75.90
2022-11-15T22:38:20.626Z,76.10
2022-11-15T22:43:27.275Z,75.90
2022-11-15T22:48:33.826Z,75.90
2022-11-15T22:53:38.001Z,75.80
2022-11-15T22:58:43.551Z,75.70
2022-11-15T23:03:47.543Z,75.60
2022-11-15T23:08:51.450Z,75.60
2022-11-15T23:13:57.191Z,75.50
2022-11-15T23:19:02.364Z,75.50
2022-11-15T23:24:07.111Z,75.50
2022-11-15T23:29:14.029Z,75.50
2022-11-15T23:34:22.267Z,75.60
2022-11-15T23:39:26.973Z,75.60
2022-11-15T23:44:32.395Z,75.60
2022-11-15T23:49:36.287Z,75.40
2022-11-15T23:54:40.436Z,75.70
2022-11-15T23:59:46.087Z,76.30
